Terminal Aerodrome Forecast
Issued by NWS Brownsville, TX

Home | Current Version | Previous Version | Text Only | Print | Product List | Glossary On
Versions: 1 2 3 4 5 6 7 8 9 10 11 12 13 14 15 16 17 18 19 20 21 22 23 24 25 26 27 28 29
000
FTUS44 KBRO 011829 AAA
TAFMFE
TAF AMD
KMFE 011829Z 0118/0218 14019G23KT P6SM FEW026 SCT035 BKN045
     FM020600 14013KT 4SM HZ BR OVC015
     FM020900 14009KT 4SM BR OVC007
     FM021200 14007KT 4SM BR OVC004
     FM021500 15015KT P6SM BKN015=

USA.gov is the U.S. government's official web portal to all federal, state and local government web resources and services.